createdAt,value
2019-03-19T00:01:09.074Z,98955.91
2019-03-19T00:03:37.285Z,98957.32
2019-03-19T00:06:05.483Z,98958.66
2019-03-19T00:08:33.688Z,98965.85
2019-03-19T00:11:01.893Z,98968.54
2019-03-19T00:13:30.397Z,98970.75
2019-03-19T00:15:58.850Z,98975.25
2019-03-19T00:18:27.055Z,98981.97
2019-03-19T00:20:55.508Z,98982.44
2019-03-19T00:23:23.731Z,98988.22
2019-03-19T00:25:53.212Z,98986.47
2019-03-19T00:28:21.523Z,98996.34
2019-03-19T00:30:50.044Z,98992.78
2019-03-19T00:33:18.647Z,98999.06
2019-03-19T00:35:46.847Z,98997.72
2019-03-19T00:38:15.062Z,99004.44
2019-03-19T00:40:43.255Z,99005.31
2019-03-19T00:43:11.449Z,99011.59
2019-03-19T00:45:40.012Z,99010.69
2019-03-19T00:48:08.210Z,99008.53
2019-03-19T00:50:36.422Z,99009.81
2019-03-19T00:53:04.619Z,99005.84
2019-03-19T00:55:40.741Z,99008.99
2019-03-19T00:58:02.762Z,99017.05
2019-03-19T01:00:32.594Z,99017.05
2019-03-19T01:03:01.113Z,99019.27
2019-03-19T01:05:29.315Z,99016.30
2019-03-19T01:07:57.870Z,99023.71
2019-03-19T01:10:26.072Z,99025.52
2019-03-19T01:12:54.628Z,99025.98
2019-03-19T01:15:22.881Z,99021.49
2019-03-19T01:17:51.485Z,99018.87
2019-03-19T01:20:19.687Z,99025.11
2019-03-19T01:22:47.890Z,99017.05
2019-03-19T01:25:16.094Z,99013.96
2019-03-19T01:27:44.300Z,99014.84
2019-03-19T01:30:16.274Z,99020.68
2019-03-19T01:32:43.909Z,99015.30
2019-03-19T01:35:12.072Z,99021.08
2019-03-19T01:37:40.271Z,99017.59
2019-03-19T01:40:10.785Z,99024.70
2019-03-19T01:42:38.979Z,99025.58
2019-03-19T01:45:14.487Z,99023.37
2019-03-19T01:47:42.694Z,99017.05
2019-03-19T01:50:15.109Z,99022.02
2019-03-19T01:52:43.314Z,99018.46
2019-03-19T01:55:12.561Z,99023.37
2019-03-19T01:57:40.774Z,99019.40
2019-03-19T02:00:16.931Z,99024.70
2019-03-19T02:02:45.126Z,99025.58
2019-03-19T02:05:13.344Z,99022.02
2019-03-19T02:07:41.826Z,99030.02
2019-03-19T02:10:14.029Z,99030.02
2019-03-19T02:12:42.575Z,99031.89
2019-03-19T02:15:13.143Z,99040.42
2019-03-19T02:17:41.331Z,99052.52
2019-03-19T02:20:19.306Z,99048.83
2019-03-19T02:22:47.513Z,99044.80
2019-03-19T02:25:15.717Z,99036.73
2019-03-19T02:27:43.920Z,99045.67
2019-03-19T02:30:17.879Z,99045.27
2019-03-19T02:32:46.140Z,99047.55
2019-03-19T02:35:14.574Z,99052.86
2019-03-19T02:37:42.805Z,99051.11
2019-03-19T02:40:13.610Z,99054.67
2019-03-19T02:42:41.823Z,99062.73
2019-03-19T02:45:11.578Z,99061.86
2019-03-19T02:47:39.793Z,99074.41
2019-03-19T02:50:17.847Z,99072.20
2019-03-19T02:52:46.048Z,99074.00
2019-03-19T02:55:14.279Z,99078.91
2019-03-19T02:57:42.447Z,99079.37
2019-03-19T03:00:13.019Z,99087.84
2019-03-19T03:02:41.288Z,99099.41
2019-03-19T03:05:17.849Z,99100.41
2019-03-19T03:07:46.062Z,99098.59
2019-03-19T03:10:14.828Z,99102.16
2019-03-19T03:12:43.022Z,99096.31
2019-03-19T03:15:14.899Z,99099.94
2019-03-19T03:17:43.081Z,99103.09
2019-03-19T03:20:15.342Z,99115.59
2019-03-19T03:22:43.545Z,99116.94
2019-03-19T03:25:12.901Z,99114.66
2019-03-19T03:27:41.160Z,99115.59
2019-03-19T03:30:14.535Z,99114.25
2019-03-19T03:32:43.025Z,99115.59
2019-03-19T03:35:11.709Z,99114.31
2019-03-19T03:37:39.904Z,99115.65
2019-03-19T03:40:15.620Z,99106.25
2019-03-19T03:42:43.829Z,99106.25
2019-03-19T03:45:16.029Z,99107.59
2019-03-19T03:47:44.240Z,99106.31
2019-03-19T03:50:16.019Z,99107.19
2019-03-19T03:52:44.201Z,99114.84
2019-03-19T03:55:13.446Z,99123.30
2019-03-19T03:57:41.958Z,99126.87
2019-03-19T04:00:20.674Z,99130.43
2019-03-19T04:02:48.863Z,99135.34
2019-03-19T04:05:17.087Z,99138.89
2019-03-19T04:07:45.284Z,99146.14
2019-03-19T04:10:14.902Z,99151.52
2019-03-19T04:12:43.101Z,99153.73
2019-03-19T04:15:16.087Z,99145.20
2019-03-19T04:17:44.644Z,99142.52
2019-03-19T04:20:13.872Z,99135.39
2019-03-19T04:22:42.447Z,99143.45
2019-03-19T04:25:11.032Z,99138.08
2019-03-19T04:27:40.702Z,99142.98
2019-03-19T04:30:17.730Z,99150.17
2019-03-19T04:32:45.929Z,99155.95
2019-03-19T04:35:14.134Z,99152.86
2019-03-19T04:37:42.337Z,99160.10
2019-03-19T04:40:11.674Z,99161.85
2019-03-19T04:42:39.875Z,99163.66
2019-03-19T04:45:10.346Z,99161.85
2019-03-19T04:47:38.551Z,99164.95
2019-03-19T04:50:10.303Z,99164.54
2019-03-19T04:52:38.513Z,99164.95
2019-03-19T04:55:09.097Z,99168.56
2019-03-19T04:57:37.383Z,99172.13
2019-03-19T05:00:10.638Z,99170.32
2019-03-19T05:02:38.841Z,99167.64
2019-03-19T05:05:10.251Z,99168.11
2019-03-19T05:07:38.473Z,99171.72
2019-03-19T05:10:11.946Z,99173.94
2019-03-19T05:12:40.146Z,99173.53
2019-03-19T05:15:08.784Z,99173.13
2019-03-19T05:17:37.266Z,99177.16
2019-03-19T05:20:09.331Z,99166.41
2019-03-19T05:22:37.813Z,99169.97
2019-03-19T05:25:07.048Z,99168.56
2019-03-19T05:27:37.746Z,99165.94
2019-03-19T05:30:08.733Z,99168.16
2019-03-19T05:32:37.261Z,99173.13
2019-03-19T05:35:07.599Z,99178.44
2019-03-19T05:37:36.065Z,99178.91
2019-03-19T05:40:07.092Z,99180.25
2019-03-19T05:42:35.297Z,99187.84
2019-03-19T05:45:03.872Z,99194.09
2019-03-19T05:47:36.992Z,99203.50
2019-03-19T05:50:02.261Z,99193.69
2019-03-19T05:52:30.455Z,99201.28
2019-03-19T05:54:58.650Z,99195.03
2019-03-19T05:57:26.858Z,99194.56
2019-03-19T05:59:55.087Z,99201.98
2019-03-19T06:02:23.634Z,99202.45
2019-03-19T06:04:51.837Z,99210.52
2019-03-19T06:07:20.034Z,99208.29
2019-03-19T06:09:48.242Z,99217.23
2019-03-19T06:12:16.441Z,99219.45
2019-03-19T06:14:44.641Z,99227.51
2019-03-19T06:17:12.864Z,99234.09
2019-03-19T06:19:41.058Z,99233.34
2019-03-19T06:22:09.548Z,99240.30
2019-03-19T06:24:37.751Z,99244.10
2019-03-19T06:27:05.968Z,99251.27
2019-03-19T06:29:34.483Z,99253.56
2019-03-19T06:32:02.704Z,99258.06
2019-03-19T06:34:30.894Z,99260.75
2019-03-19T06:36:59.116Z,99260.75
2019-03-19T06:39:27.330Z,99267.94
2019-03-19T06:41:55.540Z,99280.45
2019-03-19T06:44:26.421Z,99277.81
2019-03-19T06:46:54.644Z,99279.52
2019-03-19T06:49:23.146Z,99291.14
2019-03-19T06:51:51.456Z,99297.86
2019-03-19T06:54:19.665Z,99294.63
2019-03-19T06:56:47.885Z,99305.73
2019-03-19T06:59:16.093Z,99311.41
2019-03-19T07:01:44.300Z,99316.30
2019-03-19T07:04:12.514Z,99315.77
2019-03-19T07:06:40.721Z,99324.66
2019-03-19T07:09:09.241Z,99319.28
2019-03-19T07:11:37.448Z,99323.31
2019-03-19T07:14:06.001Z,99325.06
2019-03-19T07:16:34.208Z,99329.10
2019-03-19T07:19:02.462Z,99336.29
2019-03-19T07:21:30.656Z,99340.79
2019-03-19T07:23:58.941Z,99344.36
2019-03-19T07:26:27.481Z,99345.64
2019-03-19T07:28:55.693Z,99342.48
2019-03-19T07:31:30.742Z,99342.90
2019-03-19T07:33:54.156Z,99340.62
2019-03-19T07:36:22.397Z,99333.89
2019-03-19T07:38:50.607Z,99338.75
2019-03-19T07:41:18.809Z,99349.48
2019-03-19T07:43:47.022Z,99347.67
2019-03-19T07:46:15.532Z,99360.66
2019-03-19T07:48:43.746Z,99363.23
2019-03-19T07:51:11.945Z,99358.67
2019-03-19T07:53:40.207Z,99362.64
2019-03-19T07:56:08.736Z,99360.78
2019-03-19T07:58:45.168Z,99367.88
2019-03-19T08:01:06.885Z,99365.08
2019-03-19T08:03:35.097Z,99371.28
2019-03-19T08:06:03.588Z,99373.44
2019-03-19T08:08:32.067Z,99376.48
2019-03-19T08:11:00.277Z,99377.81
2019-03-19T08:13:28.484Z,99381.78
2019-03-19T08:15:56.691Z,99389.39
2019-03-19T08:18:24.911Z,99385.70
2019-03-19T08:20:53.445Z,99387.81
2019-03-19T08:23:21.661Z,99398.05
2019-03-19T08:25:50.204Z,99401.06
2019-03-19T08:28:18.421Z,99411.72
2019-03-19T08:30:46.629Z,99410.66
2019-03-19T08:33:14.837Z,99410.17
2019-03-19T08:35:43.047Z,99419.06
2019-03-19T08:38:11.584Z,99422.10
2019-03-19T08:40:40.062Z,99413.95
2019-03-19T08:43:08.282Z,99417.84
2019-03-19T08:45:36.919Z,99417.19
2019-03-19T08:48:05.406Z,99419.56
2019-03-19T08:50:33.612Z,99417.03
2019-03-19T08:53:02.164Z,99420.34
2019-03-19T08:55:30.371Z,99428.20
2019-03-19T08:57:58.918Z,99423.58
2019-03-19T09:00:28.805Z,99425.52
2019-03-19T09:02:57.308Z,99423.33
2019-03-19T09:05:25.518Z,99427.63
2019-03-19T09:07:53.716Z,99428.25
2019-03-19T09:10:21.924Z,99431.35
2019-03-19T09:12:50.416Z,99436.18
2019-03-19T09:15:23.808Z,99436.18
2019-03-19T09:17:52.289Z,99441.63
2019-03-19T09:20:20.873Z,99440.69
2019-03-19T09:22:49.076Z,99435.21
2019-03-19T09:25:17.633Z,99435.21
2019-03-19T09:27:46.078Z,99443.98
2019-03-19T09:30:18.480Z,99446.45
2019-03-19T09:32:47.171Z,99447.33
2019-03-19T09:35:15.394Z,99452.18
2019-03-19T09:37:44.903Z,99454.72
2019-03-19T09:40:16.451Z,99462.41
2019-03-19T09:42:44.985Z,99460.19
2019-03-19T09:45:14.340Z,99458.41
2019-03-19T09:47:42.550Z,99464.99
2019-03-19T09:50:21.791Z,99454.61
2019-03-19T09:52:49.992Z,99456.53
2019-03-19T09:55:18.443Z,99451.61
2019-03-19T09:57:46.649Z,99459.60
2019-03-19T10:00:21.556Z,99462.53
2019-03-19T10:02:50.132Z,99468.84
2019-03-19T10:05:18.439Z,99468.06
2019-03-19T10:07:46.723Z,99466.45
2019-03-19T10:10:22.986Z,99466.38
2019-03-19T10:12:51.407Z,99464.02
2019-03-19T10:15:19.623Z,99459.66
2019-03-19T10:17:49.467Z,99455.00
2019-03-19T10:20:19.047Z,99461.21
2019-03-19T10:22:47.319Z,99462.28
2019-03-19T10:25:18.748Z,99459.92
2019-03-19T10:27:47.235Z,99466.97
2019-03-19T10:30:18.758Z,99463.27
2019-03-19T10:32:47.025Z,99461.23
2019-03-19T10:35:15.300Z,99454.70
2019-03-19T10:37:43.500Z,99456.64
2019-03-19T10:40:16.825Z,99460.58
2019-03-19T10:42:45.031Z,99461.23
2019-03-19T10:45:17.345Z,99468.39
2019-03-19T10:47:45.831Z,99466.09
2019-03-19T10:50:25.380Z,99468.75
2019-03-19T10:52:53.848Z,99466.84
2019-03-19T10:55:22.056Z,99470.63
2019-03-19T10:57:50.259Z,99469.53
2019-03-19T11:00:23.662Z,99468.67
2019-03-19T11:02:51.862Z,99461.53
2019-03-19T11:05:20.807Z,99472.74
2019-03-19T11:07:49.441Z,99469.14
2019-03-19T11:10:18.383Z,99466.40
2019-03-19T11:12:46.579Z,99463.11
2019-03-19T11:15:21.736Z,99461.55
2019-03-19T11:17:50.231Z,99471.47
2019-03-19T11:20:19.278Z,99472.97
2019-03-19T11:22:47.475Z,99473.55
2019-03-19T11:25:18.982Z,99475.02
2019-03-19T11:27:47.195Z,99468.08
2019-03-19T11:30:18.655Z,99469.97
2019-03-19T11:32:46.864Z,99480.84
2019-03-19T11:35:15.328Z,99485.01
2019-03-19T11:37:43.524Z,99482.99
2019-03-19T11:40:13.881Z,99481.64
2019-03-19T11:42:42.078Z,99487.98
2019-03-19T11:45:13.857Z,99493.39
2019-03-19T11:47:42.059Z,99489.35
2019-03-19T11:50:23.973Z,99490.13
2019-03-19T11:52:52.507Z,99494.11
2019-03-19T11:55:21.091Z,99499.37
2019-03-19T11:57:49.296Z,99501.19
2019-03-19T12:00:33.697Z,99494.53
2019-03-19T12:03:12.322Z,99488.88
2019-03-19T12:05:32.429Z,99493.25
2019-03-19T12:08:00.905Z,99495.14
2019-03-19T12:10:29.117Z,99502.29
2019-03-19T12:12:57.314Z,99494.80
2019-03-19T12:15:25.759Z,99495.55
2019-03-19T12:17:53.957Z,99500.34
2019-03-19T12:20:22.486Z,99500.23
2019-03-19T12:22:51.042Z,99503.27
2019-03-19T12:25:19.186Z,99498.23
2019-03-19T12:27:47.730Z,99502.55
2019-03-19T12:30:22.620Z,99507.69
2019-03-19T12:32:50.217Z,99505.09
2019-03-19T12:35:19.305Z,99505.25
2019-03-19T12:37:47.507Z,99497.28
2019-03-19T12:40:22.829Z,99499.52
2019-03-19T12:42:51.027Z,99506.92
2019-03-19T12:45:20.278Z,99511.63
2019-03-19T12:47:48.477Z,99508.92
2019-03-19T12:50:18.435Z,99511.78
2019-03-19T12:52:46.972Z,99509.70
2019-03-19T12:55:15.450Z,99509.08
2019-03-19T12:57:43.657Z,99504.63
2019-03-19T13:00:34.341Z,99506.34
2019-03-19T13:02:58.301Z,99508.20
2019-03-19T13:05:26.779Z,99507.41
2019-03-19T13:07:54.983Z,99503.97
2019-03-19T13:10:24.278Z,99498.27
2019-03-19T13:12:52.474Z,99504.30
2019-03-19T13:15:21.023Z,99501.04
2019-03-19T13:17:49.222Z,99508.53
2019-03-19T13:20:18.385Z,99511.85
2019-03-19T13:22:46.645Z,99510.98
2019-03-19T13:25:22.632Z,99514.16
2019-03-19T13:27:50.816Z,99513.02
2019-03-19T13:30:21.617Z,99503.82
2019-03-19T13:32:50.122Z,99504.52
2019-03-19T13:35:18.327Z,99508.75
2019-03-19T13:37:46.535Z,99503.56
2019-03-19T13:40:16.608Z,99507.47
2019-03-19T13:42:45.161Z,99508.69
2019-03-19T13:45:19.434Z,99504.30
2019-03-19T13:47:47.954Z,99507.15
2019-03-19T13:50:18.157Z,99505.09
2019-03-19T13:52:46.357Z,99511.34
2019-03-19T13:55:17.700Z,99517.81
2019-03-19T13:57:46.193Z,99511.20
2019-03-19T14:00:16.489Z,99517.26
2019-03-19T14:02:44.694Z,99513.83
2019-03-19T14:05:13.851Z,99518.09
2019-03-19T14:07:42.054Z,99512.89
2019-03-19T14:10:15.150Z,99512.73
2019-03-19T14:12:43.352Z,99519.05
2019-03-19T14:15:15.218Z,99520.43
2019-03-19T14:17:42.784Z,99523.48
2019-03-19T14:20:13.716Z,99522.09
2019-03-19T14:22:41.929Z,99522.24
2019-03-19T14:25:11.267Z,99520.30
2019-03-19T14:27:39.482Z,99519.36
2019-03-19T14:30:19.467Z,99520.77
2019-03-19T14:32:47.689Z,99521.63
2019-03-19T14:35:16.225Z,99520.02
2019-03-19T14:37:44.710Z,99524.36
2019-03-19T14:40:26.644Z,99517.88
2019-03-19T14:42:54.855Z,99514.89
2019-03-19T14:45:23.058Z,99521.69
2019-03-19T14:47:51.258Z,99530.48
2019-03-19T14:50:24.626Z,99528.22
2019-03-19T14:52:52.832Z,99527.44
2019-03-19T14:55:21.100Z,99529.58
2019-03-19T14:57:50.955Z,99519.47
2019-03-19T15:00:21.563Z,99524.12
2019-03-19T15:02:49.779Z,99520.81
2019-03-19T15:05:17.987Z,99519.88
2019-03-19T15:07:46.277Z,99519.91
2019-03-19T15:10:17.744Z,99533.08
2019-03-19T15:12:45.926Z,99521.58
2019-03-19T15:15:18.045Z,99525.14
2019-03-19T15:17:46.611Z,99524.42
2019-03-19T15:20:28.557Z,99527.11
2019-03-19T15:22:56.777Z,99520.16
2019-03-19T15:25:24.980Z,99515.05
2019-03-19T15:27:53.467Z,99522.88
2019-03-19T15:30:21.939Z,99521.86
2019-03-19T15:32:50.522Z,99519.62
2019-03-19T15:35:18.706Z,99527.39
2019-03-19T15:37:47.255Z,99530.12
2019-03-19T15:40:17.726Z,99528.99
2019-03-19T15:42:46.406Z,99530.54
2019-03-19T15:45:20.648Z,99539.01
2019-03-19T15:47:48.868Z,99531.91
2019-03-19T15:50:17.145Z,99527.31
2019-03-19T15:52:45.722Z,99536.17
2019-03-19T15:55:17.036Z,99533.25
2019-03-19T15:57:45.551Z,99533.55
2019-03-19T16:00:21.500Z,99535.06
2019-03-19T16:02:49.706Z,99540.55
2019-03-19T16:05:18.268Z,99541.63
2019-03-19T16:07:46.508Z,99548.06
2019-03-19T16:10:16.800Z,99547.25
2019-03-19T16:12:45.016Z,99542.53
2019-03-19T16:15:16.896Z,99544.94
2019-03-19T16:17:45.114Z,99540.52
2019-03-19T16:20:16.112Z,99545.84
2019-03-19T16:22:44.337Z,99545.99
2019-03-19T16:25:12.896Z,99553.23
2019-03-19T16:27:41.108Z,99552.90
2019-03-19T16:30:17.508Z,99553.02
2019-03-19T16:32:45.723Z,99557.16
2019-03-19T16:35:14.376Z,99555.62
2019-03-19T16:37:43.871Z,99559.99
2019-03-19T16:40:21.866Z,99563.74
2019-03-19T16:42:50.085Z,99565.13
2019-03-19T16:45:18.750Z,99562.66
2019-03-19T16:47:47.076Z,99569.63
2019-03-19T16:50:20.075Z,99569.73
2019-03-19T16:52:48.698Z,99574.87
2019-03-19T16:55:18.415Z,99581.11
2019-03-19T16:57:46.875Z,99586.12
2019-03-19T17:00:16.931Z,99580.69
2019-03-19T17:02:45.136Z,99588.84
2019-03-19T17:05:14.309Z,99586.07
2019-03-19T17:07:42.559Z,99584.13
2019-03-19T17:10:13.996Z,99590.67
2019-03-19T17:12:42.208Z,99593.41
2019-03-19T17:15:12.816Z,99601.38
2019-03-19T17:17:41.027Z,99605.00
2019-03-19T17:20:11.829Z,99608.05
2019-03-19T17:22:40.037Z,99610.61
2019-03-19T17:25:24.382Z,99609.27
2019-03-19T17:27:52.866Z,99610.61
2019-03-19T17:30:32.274Z,99615.12
2019-03-19T17:33:03.699Z,99622.73
2019-03-19T17:35:31.899Z,99622.26
2019-03-19T17:38:00.106Z,99624.38
2019-03-19T17:40:28.626Z,99623.03
2019-03-19T17:42:57.107Z,99617.28
2019-03-19T17:45:25.416Z,99626.66
2019-03-19T17:47:53.969Z,99629.77
2019-03-19T17:50:26.778Z,99623.03
2019-03-19T17:53:01.107Z,99626.19
2019-03-19T17:55:29.573Z,99635.14
2019-03-19T17:57:57.783Z,99634.21
2019-03-19T18:00:27.623Z,99632.81
2019-03-19T18:02:55.962Z,99632.34
2019-03-19T18:05:24.214Z,99640.01
2019-03-19T18:07:52.776Z,99635.14
2019-03-19T18:10:21.092Z,99641.83
2019-03-19T18:12:49.632Z,99649.77
2019-03-19T18:15:19.234Z,99646.20
2019-03-19T18:17:47.439Z,99640.34
2019-03-19T18:20:16.194Z,99644.03
2019-03-19T18:22:44.678Z,99650.29
2019-03-19T18:25:16.483Z,99644.45
2019-03-19T18:27:45.025Z,99655.75
2019-03-19T18:30:20.365Z,99657.09
2019-03-19T18:32:48.569Z,99659.33
2019-03-19T18:35:17.121Z,99657.67
2019-03-19T18:37:45.322Z,99662.06
2019-03-19T18:40:14.582Z,99670.48
2019-03-19T18:42:43.075Z,99669.55
2019-03-19T18:45:18.417Z,99670.38
2019-03-19T18:47:46.622Z,99672.60
2019-03-19T18:50:22.377Z,99674.42
2019-03-19T18:52:50.837Z,99674.94
2019-03-19T18:55:19.955Z,99675.01
2019-03-19T18:57:48.149Z,99678.22
2019-03-19T19:00:18.475Z,99679.57
2019-03-19T19:02:50.235Z,99685.47
2019-03-19T19:05:20.475Z,99694.06
2019-03-19T19:07:48.690Z,99693.70
2019-03-19T19:10:17.633Z,99695.52
2019-03-19T19:12:45.844Z,99690.60
2019-03-19T19:15:18.719Z,99696.06
2019-03-19T19:17:46.976Z,99698.39
2019-03-19T19:20:16.017Z,99703.36
2019-03-19T19:22:44.571Z,99702.01
2019-03-19T19:25:17.177Z,99710.09
2019-03-19T19:27:45.740Z,99706.95
2019-03-19T19:30:16.745Z,99709.98
2019-03-19T19:32:44.962Z,99706.92
2019-03-19T19:35:13.167Z,99716.37
2019-03-19T19:37:41.395Z,99715.17
2019-03-19T19:40:18.420Z,99722.85
2019-03-19T19:42:46.960Z,99726.99
2019-03-19T19:45:18.658Z,99721.20
2019-03-19T19:47:46.878Z,99722.48
2019-03-19T19:50:17.732Z,99734.13
2019-03-19T19:52:46.308Z,99734.23
2019-03-19T19:55:14.895Z,99733.35
2019-03-19T19:57:43.691Z,99740.55
2019-03-19T20:00:17.589Z,99737.02
2019-03-19T20:02:45.865Z,99740.64
2019-03-19T20:05:14.071Z,99744.69
2019-03-19T20:07:42.622Z,99750.96
2019-03-19T20:10:19.601Z,99747.44
2019-03-19T20:12:48.080Z,99756.03
2019-03-19T20:15:16.291Z,99751.98
2019-03-19T20:17:44.556Z,99757.37
2019-03-19T20:20:17.878Z,99762.34
2019-03-19T20:22:46.083Z,99761.88
2019-03-19T20:25:14.576Z,99756.49
2019-03-19T20:27:43.264Z,99754.78
2019-03-19T20:30:16.243Z,99756.59
2019-03-19T20:32:44.743Z,99760.67
2019-03-19T20:35:13.058Z,99759.84
2019-03-19T20:37:41.269Z,99763.42
2019-03-19T20:40:14.477Z,99765.23
2019-03-19T20:42:42.682Z,99772.43
2019-03-19T20:45:13.485Z,99778.33
2019-03-19T20:47:41.688Z,99778.33
2019-03-19T20:50:15.773Z,99781.48
2019-03-19T20:52:43.984Z,99780.91
2019-03-19T20:55:12.234Z,99783.61
2019-03-19T20:57:40.409Z,99785.41
2019-03-19T21:00:12.149Z,99783.70
2019-03-19T21:02:40.364Z,99788.63
2019-03-19T21:05:08.581Z,99783.80
2019-03-19T21:07:37.089Z,99785.61
2019-03-19T21:10:11.114Z,99794.14
2019-03-19T21:12:39.393Z,99790.63
2019-03-19T21:15:11.136Z,99795.39
2019-03-19T21:17:39.348Z,99798.73
2019-03-19T21:20:07.644Z,99794.77
2019-03-19T21:22:35.849Z,99803.39
2019-03-19T21:25:05.192Z,99805.29
2019-03-19T21:27:33.737Z,99812.07
2019-03-19T21:30:02.326Z,99809.42
2019-03-19T21:32:30.683Z,99813.09
2019-03-19T21:34:59.178Z,99810.49
2019-03-19T21:37:27.784Z,99813.69
2019-03-19T21:39:56.052Z,99819.53
2019-03-19T21:42:24.295Z,99821.81
2019-03-19T21:44:52.583Z,99824.97
2019-03-19T21:47:21.170Z,99824.13
2019-03-19T21:49:49.353Z,99827.74
2019-03-19T21:52:17.934Z,99823.34
2019-03-19T21:54:46.424Z,99828.30
2019-03-19T21:57:14.634Z,99831.03
2019-03-19T21:59:43.746Z,99836.88
2019-03-19T22:02:11.989Z,99834.23
2019-03-19T22:04:41.215Z,99834.28
2019-03-19T22:07:09.587Z,99830.75
2019-03-19T22:09:37.807Z,99835.70
2019-03-19T22:12:06.061Z,99830.38
2019-03-19T22:14:34.312Z,99832.61
2019-03-19T22:17:02.860Z,99828.63
2019-03-19T22:19:32.680Z,99823.28
2019-03-19T22:22:01.233Z,99824.64
2019-03-19T22:24:29.445Z,99827.33
2019-03-19T22:26:57.683Z,99832.75
2019-03-19T22:29:25.903Z,99837.23
2019-03-19T22:31:54.132Z,99829.22
2019-03-19T22:34:23.162Z,99831.95
2019-03-19T22:36:51.378Z,99828.84
2019-03-19T22:39:19.590Z,99828.84
2019-03-19T22:41:47.921Z,99825.73
2019-03-19T22:44:16.155Z,99826.66
2019-03-19T22:46:44.379Z,99824.02
2019-03-19T22:49:12.585Z,99824.48
2019-03-19T22:51:41.160Z,99818.65
2019-03-19T22:54:09.379Z,99822.69
2019-03-19T22:56:37.945Z,99816.47
2019-03-19T22:59:06.244Z,99822.72
2019-03-19T23:01:34.474Z,99823.19
2019-03-19T23:04:02.683Z,99824.11
2019-03-19T23:06:30.927Z,99825.91
2019-03-19T23:08:59.149Z,99825.03
2019-03-19T23:11:27.682Z,99832.26
2019-03-19T23:13:55.893Z,99830.45
2019-03-19T23:16:24.109Z,99833.18
2019-03-19T23:18:52.317Z,99831.38
2019-03-19T23:21:21.079Z,99830.49
2019-03-19T23:23:49.571Z,99826.88
2019-03-19T23:26:17.776Z,99833.64
2019-03-19T23:28:45.977Z,99835.45
2019-03-19T23:31:14.495Z,99836.79
2019-03-19T23:33:43.185Z,99827.38
2019-03-19T23:36:11.665Z,99829.19
2019-03-19T23:38:40.200Z,99824.28
2019-03-19T23:41:08.398Z,99825.63
2019-03-19T23:43:36.904Z,99826.55
2019-03-19T23:46:05.107Z,99824.32
2019-03-19T23:48:33.663Z,99832.80
2019-03-19T23:51:02.349Z,99826.55
2019-03-19T23:53:30.819Z,99827.44
2019-03-19T23:55:59.022Z,99819.83
2019-03-19T23:58:27.239Z,99825.66
